createdAt,value
2018-06-17T00:00:24.683Z,41.33
2018-06-17T00:03:00.137Z,37.00
2018-06-17T00:05:35.594Z,48.92
2018-06-17T00:08:11.259Z,37.85
2018-06-17T00:10:46.867Z,39.08
2018-06-17T00:13:22.355Z,39.75
2018-06-17T00:15:57.720Z,44.20
2018-06-17T00:18:33.128Z,49.18
2018-06-17T00:21:08.670Z,41.28
2018-06-17T00:23:44.130Z,46.98
2018-06-17T00:26:19.645Z,49.88
2018-06-17T00:28:55.229Z,57.62
2018-06-17T00:31:30.850Z,44.50
2018-06-17T00:34:06.319Z,46.77
2018-06-17T00:36:41.827Z,52.48
2018-06-17T00:39:17.404Z,59.95
2018-06-17T00:41:52.876Z,54.42
2018-06-17T00:44:28.326Z,49.45
2018-06-17T00:47:03.980Z,52.62
2018-06-17T00:49:39.464Z,55.63
2018-06-17T00:52:14.992Z,56.15
2018-06-17T00:54:50.419Z,69.80
2018-06-17T00:57:36.948Z,56.10
2018-06-17T01:00:12.373Z,55.23
2018-06-17T01:02:47.923Z,65.55
2018-06-17T01:05:23.444Z,65.52
2018-06-17T01:07:59.067Z,69.60
2018-06-17T01:10:34.079Z,74.22
2018-06-17T01:13:09.428Z,75.42
2018-06-17T01:15:44.937Z,72.78
2018-06-17T01:18:20.527Z,98.72
2018-06-17T01:20:56.212Z,84.55
2018-06-17T01:23:31.901Z,90.55
2018-06-17T01:26:09.194Z,89.60
2018-06-17T01:28:44.831Z,101.65
2018-06-17T01:31:20.386Z,88.60
2018-06-17T01:33:55.938Z,81.65
2018-06-17T01:36:31.437Z,86.80
2018-06-17T01:39:08.115Z,108.20
2018-06-17T01:41:43.716Z,108.90
2018-06-17T01:44:19.186Z,96.50
2018-06-17T01:46:54.763Z,158.03
2018-06-17T01:49:30.353Z,79.00
2018-06-17T01:52:05.880Z,100.25
2018-06-17T01:54:41.335Z,77.53
2018-06-17T01:57:16.788Z,129.87
2018-06-17T01:59:52.359Z,76.72
2018-06-17T02:02:27.988Z,78.70
2018-06-17T02:05:08.651Z,96.57
2018-06-17T02:07:49.648Z,78.20
2018-06-17T02:10:30.502Z,111.15
2018-06-17T02:13:06.051Z,78.22
2018-06-17T02:15:41.488Z,95.57
2018-06-17T02:18:17.073Z,100.65
2018-06-17T02:20:52.567Z,98.05
2018-06-17T02:23:28.072Z,110.70
2018-06-17T02:26:03.661Z,145.25
2018-06-17T02:28:39.169Z,69.30
2018-06-17T02:31:14.713Z,99.40
2018-06-17T02:33:50.308Z,88.12
2018-06-17T02:36:25.521Z,84.52
2018-06-17T02:39:00.978Z,90.30
2018-06-17T02:41:36.955Z,90.87
2018-06-17T02:44:12.040Z,96.00
2018-06-17T02:46:52.636Z,102.58
2018-06-17T02:49:33.440Z,87.17
2018-06-17T02:52:14.508Z,64.03
2018-06-17T02:54:49.796Z,116.67
2018-06-17T02:57:25.126Z,58.25
2018-06-17T03:00:00.677Z,69.12
2018-06-17T03:02:36.259Z,80.28
2018-06-17T03:05:11.688Z,61.90
2018-06-17T03:07:47.246Z,68.67
2018-06-17T03:10:22.747Z,82.10
2018-06-17T03:12:58.324Z,70.97
2018-06-17T03:15:34.532Z,67.47
2018-06-17T03:18:10.164Z,95.17
2018-06-17T03:20:45.616Z,103.12
2018-06-17T03:23:21.113Z,121.25
2018-06-17T03:26:01.854Z,103.40
2018-06-17T03:28:42.681Z,68.67
2018-06-17T03:31:19.405Z,81.57
2018-06-17T03:33:56.417Z,78.22
2018-06-17T03:36:31.965Z,78.17
2018-06-17T03:39:07.708Z,64.90
2018-06-17T03:41:43.112Z,80.10
2018-06-17T03:44:18.665Z,90.55
2018-06-17T03:46:54.145Z,80.85
2018-06-17T03:49:30.191Z,101.40
2018-06-17T03:52:05.649Z,118.82
2018-06-17T03:54:41.190Z,69.22
2018-06-17T03:57:16.580Z,99.47
2018-06-17T03:59:52.060Z,57.50
2018-06-17T04:02:27.623Z,55.00
2018-06-17T04:05:08.710Z,73.25
2018-06-17T04:07:44.280Z,67.00
2018-06-17T04:10:19.895Z,101.27
2018-06-17T04:12:55.479Z,82.20
2018-06-17T04:15:30.910Z,62.67
2018-06-17T04:18:07.668Z,70.47
2018-06-17T04:20:43.272Z,72.40
2018-06-17T04:23:18.811Z,60.60
2018-06-17T04:25:54.271Z,75.45
2018-06-17T04:28:29.500Z,57.43
2018-06-17T04:31:04.953Z,52.85
2018-06-17T04:33:40.409Z,47.83
2018-06-17T04:36:15.864Z,66.02
2018-06-17T04:38:51.451Z,49.88
2018-06-17T04:41:26.727Z,56.58
2018-06-17T04:44:02.157Z,45.92
2018-06-17T04:46:37.420Z,46.28
2018-06-17T04:49:12.845Z,44.70
2018-06-17T04:51:48.295Z,42.55
2018-06-17T04:54:23.768Z,39.63
2018-06-17T04:56:59.361Z,39.18
2018-06-17T04:59:35.000Z,40.35
2018-06-17T05:02:10.418Z,43.40
2018-06-17T05:04:46.015Z,50.08
2018-06-17T05:07:21.581Z,38.40
2018-06-17T05:09:57.195Z,42.03
2018-06-17T05:12:32.740Z,36.75
2018-06-17T05:15:08.410Z,35.00
2018-06-17T05:17:43.859Z,30.80
2018-06-17T05:20:19.493Z,30.37
2018-06-17T05:22:54.929Z,30.17
2018-06-17T05:25:31.082Z,31.13
2018-06-17T05:28:07.416Z,28.07
2018-06-17T05:30:42.868Z,24.83
2018-06-17T05:33:18.408Z,23.17
2018-06-17T05:35:53.811Z,25.30
2018-06-17T05:38:30.004Z,23.97
2018-06-17T05:41:05.553Z,23.57
2018-06-17T05:43:41.084Z,23.03
2018-06-17T05:46:16.840Z,20.13
2018-06-17T05:48:52.444Z,18.57
2018-06-17T05:51:27.868Z,18.03
2018-06-17T05:54:03.422Z,17.53
2018-06-17T05:56:39.134Z,20.23
2018-06-17T05:59:14.584Z,15.90
2018-06-17T06:01:50.210Z,17.17
2018-06-17T06:04:25.801Z,15.23
2018-06-17T06:07:01.205Z,12.90
2018-06-17T06:09:36.580Z,14.20
2018-06-17T06:12:14.078Z,13.40
2018-06-17T06:14:49.564Z,14.50
2018-06-17T06:17:25.029Z,17.17
2018-06-17T06:20:00.585Z,12.27
2018-06-17T06:22:36.136Z,13.30
2018-06-17T06:25:11.740Z,15.20
2018-06-17T06:27:47.228Z,13.73
2018-06-17T06:30:22.775Z,13.37
2018-06-17T06:32:58.167Z,13.33
2018-06-17T06:35:33.658Z,15.53
2018-06-17T06:38:09.335Z,18.23
2018-06-17T06:40:44.961Z,12.50
2018-06-17T06:43:20.742Z,14.47
2018-06-17T06:45:56.283Z,16.40
2018-06-17T06:48:31.765Z,24.13
2018-06-17T06:51:07.369Z,12.10
2018-06-17T06:53:42.536Z,13.57
2018-06-17T06:56:18.039Z,12.07
2018-06-17T06:58:53.729Z,14.60
2018-06-17T07:01:40.453Z,14.37
2018-06-17T07:04:26.973Z,12.30
2018-06-17T07:07:13.577Z,9.53
2018-06-17T07:10:51.740Z,8.33
2018-06-17T07:13:27.385Z,8.33
2018-06-17T07:16:16.022Z,7.70
2018-06-17T07:18:51.529Z,9.10
2018-06-17T07:21:26.705Z,7.50
2018-06-17T07:24:01.940Z,7.20
2018-06-17T07:26:52.641Z,12.67
2018-06-17T07:29:42.573Z,5.57
2018-06-17T07:32:17.893Z,9.37
2018-06-17T07:34:53.225Z,10.37
2018-06-17T07:37:28.170Z,5.60
2018-06-17T07:41:05.756Z,7.70
2018-06-17T07:43:41.108Z,10.07
2018-06-17T07:46:25.710Z,6.57
2018-06-17T07:49:45.101Z,7.20
2018-06-17T07:52:26.779Z,7.07
2018-06-17T07:55:03.088Z,6.30
2018-06-17T07:57:38.588Z,10.47
2018-06-17T08:00:21.201Z,8.70
2018-06-17T08:02:56.551Z,8.50
2018-06-17T08:05:31.887Z,5.60
2018-06-17T08:08:07.163Z,6.53
2018-06-17T08:10:42.505Z,10.27
2018-06-17T08:13:18.589Z,5.47
2018-06-17T08:15:53.916Z,6.67
2018-06-17T08:18:29.317Z,8.00
2018-06-17T08:21:05.548Z,9.90
2018-06-17T08:23:40.754Z,6.13
2018-06-17T08:26:15.941Z,11.80
2018-06-17T08:28:51.162Z,6.70
2018-06-17T08:31:26.397Z,8.13
2018-06-17T08:34:01.808Z,7.00
2018-06-17T08:36:37.370Z,8.77
2018-06-17T08:39:13.994Z,6.93
2018-06-17T08:41:49.249Z,7.63
2018-06-17T08:44:25.135Z,6.97
2018-06-17T08:47:00.509Z,9.00
2018-06-17T08:49:35.921Z,6.30
2018-06-17T08:52:11.371Z,9.27
2018-06-17T08:54:46.757Z,7.73
2018-06-17T08:57:22.164Z,5.40
2018-06-17T08:59:57.604Z,11.10
2018-06-17T09:02:32.856Z,6.77
2018-06-17T09:05:08.251Z,7.20
2018-06-17T09:07:43.614Z,6.77
2018-06-17T09:10:18.925Z,5.97
2018-06-17T09:12:54.265Z,7.23
2018-06-17T09:15:29.501Z,5.63
2018-06-17T09:18:05.521Z,5.10
2018-06-17T09:20:40.920Z,4.23
2018-06-17T09:23:16.266Z,6.87
2018-06-17T09:25:51.523Z,7.30
2018-06-17T09:28:27.352Z,8.07
2018-06-17T09:31:02.682Z,7.77
2018-06-17T09:33:38.009Z,5.53
2018-06-17T09:36:13.381Z,6.53
2018-06-17T09:38:48.752Z,5.03
2018-06-17T09:41:24.000Z,6.07
2018-06-17T09:44:18.562Z,6.50
2018-06-17T09:46:53.584Z,6.43
2018-06-17T09:49:28.756Z,5.47
2018-06-17T09:52:04.335Z,11.80
2018-06-17T09:54:39.877Z,6.83
2018-06-17T09:57:15.053Z,6.47
2018-06-17T09:59:50.375Z,10.23
2018-06-17T10:02:25.643Z,5.33
2018-06-17T10:05:01.236Z,7.07
2018-06-17T10:07:36.577Z,6.33
2018-06-17T10:10:50.152Z,5.23
2018-06-17T10:13:26.973Z,7.13
2018-06-17T10:16:02.629Z,7.70
2018-06-17T10:18:38.065Z,6.97
2018-06-17T10:21:13.655Z,10.80
2018-06-17T10:23:49.030Z,5.53
2018-06-17T10:26:24.162Z,4.33
2018-06-17T10:28:59.645Z,5.87
2018-06-17T10:31:35.053Z,6.20
2018-06-17T10:34:10.528Z,7.90
2018-06-17T10:36:46.047Z,6.50
2018-06-17T10:39:21.624Z,5.43
2018-06-17T10:41:56.732Z,6.93
2018-06-17T10:44:32.200Z,9.27
2018-06-17T10:47:07.891Z,6.50
2018-06-17T10:49:42.975Z,5.67
2018-06-17T10:52:18.544Z,6.30
2018-06-17T10:54:54.038Z,7.97
2018-06-17T10:57:29.631Z,6.00
2018-06-17T11:03:34.090Z,10.57
2018-06-17T11:06:09.612Z,6.43
2018-06-17T11:08:45.295Z,7.50
2018-06-17T11:11:20.834Z,6.43
2018-06-17T11:13:56.386Z,5.50
2018-06-17T11:16:31.994Z,5.53
2018-06-17T11:19:07.402Z,7.40
2018-06-17T11:21:42.750Z,5.37
2018-06-17T11:24:18.240Z,6.93
2018-06-17T11:26:54.054Z,9.20
2018-06-17T11:29:29.939Z,7.00
2018-06-17T11:32:05.316Z,6.83
2018-06-17T11:34:40.661Z,4.97
2018-06-17T11:37:16.257Z,6.33
2018-06-17T11:39:51.848Z,5.90
2018-06-17T11:42:27.875Z,5.30
2018-06-17T11:45:03.478Z,6.57
2018-06-17T11:47:38.977Z,6.83
2018-06-17T11:50:14.514Z,7.60
2018-06-17T11:52:49.677Z,15.57
2018-06-17T11:55:25.012Z,11.80
2018-06-17T11:58:00.700Z,13.43
2018-06-17T12:00:36.341Z,14.07
2018-06-17T12:03:11.963Z,11.60
2018-06-17T12:05:47.629Z,11.93
2018-06-17T12:08:23.241Z,15.90
2018-06-17T12:20:17.371Z,8.60
2018-06-17T12:23:11.784Z,7.63
2018-06-17T12:25:47.793Z,8.33
2018-06-17T12:28:24.163Z,9.30
2018-06-17T12:30:59.836Z,8.30
2018-06-17T12:33:35.462Z,9.27
2018-06-17T12:36:11.780Z,13.63
2018-06-17T12:38:47.207Z,12.60
2018-06-17T12:41:22.695Z,14.03
2018-06-17T12:43:58.677Z,13.57
2018-06-17T12:46:34.393Z,16.63
2018-06-17T12:49:09.943Z,14.47
2018-06-17T12:54:47.057Z,15.83
2018-06-17T12:57:23.026Z,26.55
2018-06-17T12:59:58.716Z,14.65
2018-06-17T13:02:34.227Z,17.60
2018-06-17T13:05:09.754Z,21.10
2018-06-17T13:07:46.754Z,18.25
2018-06-17T13:10:21.889Z,21.17
2018-06-17T13:12:57.189Z,19.00
2018-06-17T13:15:32.746Z,17.37
2018-06-17T13:18:08.529Z,18.98
2018-06-17T13:20:44.313Z,17.62
2018-06-17T13:23:19.957Z,18.15
2018-06-17T13:25:55.416Z,18.80
2018-06-17T13:28:31.058Z,20.20
2018-06-17T13:31:06.779Z,18.27
2018-06-17T13:33:42.363Z,14.55
2018-06-17T13:36:17.925Z,21.77
2018-06-17T13:38:53.871Z,16.70
2018-06-17T13:41:29.074Z,15.70
2018-06-17T13:44:04.742Z,17.47
2018-06-17T13:46:39.913Z,13.73
2018-06-17T13:49:15.285Z,19.60
2018-06-17T13:51:50.860Z,15.53
2018-06-17T13:54:26.322Z,15.47
2018-06-17T13:57:03.124Z,9.50
2018-06-17T13:59:38.653Z,8.47
2018-06-17T14:02:14.212Z,7.03
2018-06-17T14:04:49.675Z,10.53
2018-06-17T14:07:25.252Z,8.23
2018-06-17T14:10:00.737Z,8.87
2018-06-17T14:12:36.288Z,6.40
2018-06-17T14:15:11.848Z,9.60
2018-06-17T14:17:47.296Z,5.37
2018-06-17T14:20:22.827Z,7.03
2018-06-17T14:22:58.288Z,6.00
2018-06-17T14:25:33.862Z,6.70
2018-06-17T14:28:09.408Z,8.97
2018-06-17T14:30:44.563Z,5.77
2018-06-17T14:33:20.012Z,4.07
2018-06-17T14:35:55.557Z,3.90
2018-06-17T14:38:31.080Z,5.43
2018-06-17T14:41:12.209Z,5.93
2018-06-17T14:43:53.253Z,3.70
2018-06-17T14:46:33.766Z,4.47
2018-06-17T14:49:14.563Z,3.67
2018-06-17T14:51:55.402Z,3.57
2018-06-17T14:54:30.975Z,4.20
2018-06-17T14:57:06.589Z,4.50
2018-06-17T14:59:42.177Z,2.20
2018-06-17T15:02:17.638Z,3.90
2018-06-17T15:04:53.220Z,3.57
2018-06-17T15:07:28.822Z,2.40
2018-06-17T15:10:04.655Z,3.83
2018-06-17T15:12:40.339Z,7.60
2018-06-17T15:15:15.758Z,3.50
2018-06-17T15:17:51.292Z,5.97
2018-06-17T15:20:26.873Z,3.83
2018-06-17T15:23:02.492Z,4.93
2018-06-17T15:25:38.069Z,3.00
2018-06-17T15:28:13.541Z,3.20
2018-06-17T15:30:50.593Z,3.60
2018-06-17T15:33:32.915Z,5.10
2018-06-17T15:36:13.858Z,5.63
2018-06-17T15:38:52.947Z,4.53
2018-06-17T15:41:29.116Z,5.83
2018-06-17T15:44:04.608Z,6.20
2018-06-17T15:46:40.019Z,5.50
2018-06-17T15:49:15.600Z,7.87
2018-06-17T15:51:51.013Z,33.43
2018-06-17T15:54:26.556Z,7.20
2018-06-17T15:57:02.191Z,6.80
2018-06-17T15:59:37.540Z,4.00
2018-06-17T16:02:13.128Z,3.93
2018-06-17T16:04:48.596Z,4.40
2018-06-17T16:07:24.141Z,8.30
2018-06-17T16:09:59.756Z,4.93
2018-06-17T16:12:40.695Z,5.70
2018-06-17T16:15:21.378Z,5.60
2018-06-17T16:18:02.289Z,5.23
2018-06-17T16:20:43.007Z,3.73
2018-06-17T16:23:18.716Z,3.77
2018-06-17T16:25:54.243Z,7.00
2018-06-17T16:28:29.787Z,2.90
2018-06-17T16:31:05.028Z,7.20
2018-06-17T16:33:40.461Z,10.13
2018-06-17T16:36:15.540Z,5.87
2018-06-17T16:38:50.931Z,5.87
2018-06-17T16:41:26.405Z,6.10
2018-06-17T16:44:01.913Z,3.80
2018-06-17T16:46:37.345Z,6.17
2018-06-17T16:49:12.623Z,7.03
2018-06-17T16:51:53.157Z,3.33
2018-06-17T16:56:36.854Z,4.40
2018-06-17T16:59:17.617Z,7.23
2018-06-17T17:01:53.465Z,7.83
2018-06-17T17:04:29.020Z,10.40
2018-06-17T17:07:04.301Z,3.80
2018-06-17T17:09:40.088Z,4.40
2018-06-17T17:12:15.642Z,4.07
2018-06-17T17:14:51.078Z,5.30
2018-06-17T17:17:26.507Z,4.67
2018-06-17T17:20:01.932Z,4.20
2018-06-17T17:22:37.472Z,3.37
2018-06-17T17:25:13.013Z,4.47
2018-06-17T17:27:48.461Z,9.30
2018-06-17T17:30:24.038Z,8.43
2018-06-17T17:33:04.549Z,3.73
2018-06-17T17:35:45.224Z,4.27
2018-06-17T17:38:25.883Z,3.57
2018-06-17T17:41:03.144Z,4.60
2018-06-17T17:43:38.568Z,5.33
2018-06-17T17:46:19.293Z,3.17
2018-06-17T17:48:54.756Z,7.70
2018-06-17T17:51:30.318Z,3.43
2018-06-17T17:54:06.641Z,5.57
2018-06-17T17:56:42.127Z,5.53
2018-06-17T17:59:17.561Z,3.17
2018-06-17T18:01:52.969Z,5.00
2018-06-17T18:04:28.625Z,4.30
2018-06-17T18:07:04.061Z,7.07
2018-06-17T18:09:39.496Z,4.77
2018-06-17T18:12:14.939Z,7.43
2018-06-17T18:14:50.654Z,7.53
2018-06-17T18:17:26.149Z,16.93
2018-06-17T18:20:01.767Z,11.33
2018-06-17T18:22:37.188Z,6.97
2018-06-17T18:25:17.925Z,7.90
2018-06-17T18:27:58.725Z,5.00
2018-06-17T18:30:39.317Z,4.87
2018-06-17T18:33:20.189Z,4.80
2018-06-17T18:36:01.256Z,6.63
2018-06-17T18:38:37.804Z,5.90
2018-06-17T18:41:14.209Z,15.90
2018-06-17T18:43:49.464Z,8.15
2018-06-17T18:46:24.990Z,6.72
2018-06-17T18:49:00.436Z,3.80
2018-06-17T18:51:35.950Z,5.10
2018-06-17T18:54:11.510Z,4.28
2018-06-17T18:56:47.057Z,7.25
2018-06-17T18:59:22.446Z,6.78
2018-06-17T19:01:57.860Z,7.17
2018-06-17T19:04:33.497Z,6.23
2018-06-17T19:07:09.104Z,4.25
2018-06-17T19:09:49.824Z,6.25
2018-06-17T19:12:30.617Z,6.78
2018-06-17T19:15:11.575Z,3.62
2018-06-17T19:17:52.432Z,10.50
2018-06-17T19:20:28.011Z,4.17
2018-06-17T19:23:03.433Z,5.28
2018-06-17T19:25:39.096Z,4.05
2018-06-17T19:28:14.671Z,5.58
2018-06-17T19:30:49.975Z,6.10
2018-06-17T19:33:25.365Z,7.17
2018-06-17T19:36:00.767Z,4.58
2018-06-17T19:38:36.224Z,9.95
2018-06-17T19:41:11.853Z,5.25
2018-06-17T19:43:47.453Z,7.33
2018-06-17T19:46:22.832Z,4.37
2018-06-17T19:48:58.224Z,11.25
2018-06-17T19:51:39.333Z,7.22
2018-06-17T19:56:27.042Z,7.03
2018-06-17T19:59:07.729Z,7.05
2018-06-17T20:01:42.926Z,7.70
2018-06-17T20:04:18.341Z,6.50
2018-06-17T20:06:53.533Z,7.45
2018-06-17T20:09:28.984Z,6.12
2018-06-17T20:12:04.510Z,6.28
2018-06-17T20:14:40.045Z,4.87
2018-06-17T20:17:15.574Z,7.30
2018-06-17T20:19:50.997Z,6.75
2018-06-17T20:22:26.473Z,7.20
2018-06-17T20:25:02.029Z,5.08
2018-06-17T20:27:37.499Z,5.20
2018-06-17T20:30:12.943Z,8.05
2018-06-17T20:32:53.544Z,4.80
2018-06-17T20:35:34.007Z,15.38
2018-06-17T20:38:14.565Z,7.58
2018-06-17T20:40:55.081Z,5.67
2018-06-17T20:43:35.769Z,6.80
2018-06-17T20:46:11.324Z,9.43
2018-06-17T20:48:47.683Z,4.45
2018-06-17T20:51:23.148Z,5.22
2018-06-17T20:53:58.629Z,6.37
2018-06-17T20:56:34.157Z,3.85
2018-06-17T20:59:09.548Z,7.33
2018-06-17T21:01:44.913Z,5.40
2018-06-17T21:04:20.305Z,7.65
2018-06-17T21:06:55.720Z,5.00
2018-06-17T21:09:31.085Z,4.95
2018-06-17T21:12:06.853Z,7.62
2018-06-17T21:14:42.384Z,4.55
2018-06-17T21:17:17.581Z,7.30
2018-06-17T21:19:58.160Z,4.90
2018-06-17T21:22:38.768Z,9.55
2018-06-17T21:25:19.108Z,6.00
2018-06-17T21:27:56.660Z,11.15
2018-06-17T21:30:32.144Z,6.42
2018-06-17T21:33:07.549Z,7.30
2018-06-17T21:35:42.978Z,5.03
2018-06-17T21:38:18.508Z,6.53
2018-06-17T21:40:54.154Z,6.62
2018-06-17T21:43:29.559Z,5.20
2018-06-17T21:46:05.080Z,4.70
2018-06-17T21:48:41.571Z,4.67
2018-06-17T21:51:17.252Z,8.20
2018-06-17T21:53:53.699Z,7.03
2018-06-17T21:56:29.095Z,8.98
2018-06-17T21:59:04.805Z,10.63
2018-06-17T22:01:40.350Z,8.13
2018-06-17T22:04:21.244Z,6.75
2018-06-17T22:06:56.803Z,4.83
2018-06-17T22:09:37.482Z,5.28
2018-06-17T22:12:18.224Z,7.25
2018-06-17T22:14:59.059Z,8.45
2018-06-17T22:17:39.772Z,8.35
2018-06-17T22:20:15.268Z,5.72
2018-06-17T22:22:50.630Z,8.48
2018-06-17T22:25:26.083Z,8.18
2018-06-17T22:28:01.776Z,5.37
2018-06-17T22:30:37.203Z,9.28
2018-06-17T22:33:12.319Z,11.63
2018-06-17T22:35:47.743Z,9.48
2018-06-17T22:38:23.183Z,8.60
2018-06-17T22:40:58.740Z,7.35
2018-06-17T22:43:34.388Z,10.05
2018-06-17T22:46:10.024Z,8.08
2018-06-17T22:48:45.557Z,8.50
2018-06-17T22:51:20.640Z,8.88
2018-06-17T22:54:01.203Z,6.55
2018-06-17T22:56:41.504Z,6.33
2018-06-17T22:59:22.177Z,13.05
2018-06-17T23:02:02.972Z,9.25
2018-06-17T23:06:48.741Z,8.05
2018-06-17T23:09:29.565Z,9.58
2018-06-17T23:12:05.048Z,11.15
2018-06-17T23:14:40.610Z,9.40
2018-06-17T23:17:16.428Z,8.58
2018-06-17T23:19:51.820Z,10.38
2018-06-17T23:22:27.350Z,9.83
2018-06-17T23:25:02.868Z,10.70
2018-06-17T23:27:38.236Z,10.98
2018-06-17T23:30:13.812Z,11.08
2018-06-17T23:32:49.203Z,11.53
2018-06-17T23:35:24.588Z,10.60
2018-06-17T23:37:59.641Z,9.45
2018-06-17T23:40:35.029Z,12.47
2018-06-17T23:43:10.542Z,10.35
2018-06-17T23:45:51.407Z,11.30
2018-06-17T23:48:32.276Z,8.75
2018-06-17T23:51:13.021Z,7.12
2018-06-17T23:53:53.879Z,14.15
2018-06-17T23:56:29.472Z,12.30
2018-06-17T23:59:05.009Z,7.25
